sensor_id;sensor_type;location;lat;lon;timestamp;pressure;altitude;pressure_sealevel;temperature;humidity
37066;BME280;22981;43.080;25.550;2024-03-25T00:00:23;98203.89;;;11.17;62.35
37066;BME280;22981;43.080;25.550;2024-03-25T00:02:51;98197.95;;;11.13;62.45
37066;BME280;22981;43.080;25.550;2024-03-25T00:05:20;98186.70;;;11.11;62.54
37066;BME280;22981;43.080;25.550;2024-03-25T00:07:52;98184.59;;;11.15;62.58
37066;BME280;22981;43.080;25.550;2024-03-25T00:10:20;98186.47;;;11.15;62.53
37066;BME280;22981;43.080;25.550;2024-03-25T00:12:48;98176.30;;;11.17;62.57
37066;BME280;22981;43.080;25.550;2024-03-25T00:15:17;98172.05;;;11.21;62.55
37066;BME280;22981;43.080;25.550;2024-03-25T00:17:46;98177.70;;;11.24;62.45
37066;BME280;22981;43.080;25.550;2024-03-25T00:20:14;98174.72;;;11.18;62.55
37066;BME280;22981;43.080;25.550;2024-03-25T00:22:42;98175.48;;;11.14;62.77
37066;BME280;22981;43.080;25.550;2024-03-25T00:25:09;98176.19;;;11.04;63.07
37066;BME280;22981;43.080;25.550;2024-03-25T00:27:37;98182.83;;;10.96;63.27
37066;BME280;22981;43.080;25.550;2024-03-25T00:30:05;98170.17;;;10.92;63.41
37066;BME280;22981;43.080;25.550;2024-03-25T00:32:33;98170.43;;;10.88;63.54
37066;BME280;22981;43.080;25.550;2024-03-25T00:35:00;98179.09;;;10.73;63.84
37066;BME280;22981;43.080;25.550;2024-03-25T00:37:28;98189.13;;;10.58;64.13
37066;BME280;22981;43.080;25.550;2024-03-25T00:39:55;98197.05;;;10.50;64.27
37066;BME280;22981;43.080;25.550;2024-03-25T00:42:24;98196.74;;;10.47;64.23
37066;BME280;22981;43.080;25.550;2024-03-25T00:44:51;98207.66;;;10.43;64.18
37066;BME280;22981;43.080;25.550;2024-03-25T00:47:19;98209.97;;;10.34;64.29
37066;BME280;22981;43.080;25.550;2024-03-25T00:49:46;98209.64;;;10.31;64.27
37066;BME280;22981;43.080;25.550;2024-03-25T00:52:14;98201.03;;;10.26;64.36
37066;BME280;22981;43.080;25.550;2024-03-25T00:54:42;98187.08;;;10.24;64.32
37066;BME280;22981;43.080;25.550;2024-03-25T00:57:09;98188.91;;;10.21;64.37
37066;BME280;22981;43.080;25.550;2024-03-25T00:59:38;98191.32;;;10.22;64.34
37066;BME280;22981;43.080;25.550;2024-03-25T01:02:06;98204.59;;;10.15;64.39
37066;BME280;22981;43.080;25.550;2024-03-25T01:04:34;98213.40;;;10.13;64.46
37066;BME280;22981;43.080;25.550;2024-03-25T01:07:02;98219.81;;;10.12;64.48
37066;BME280;22981;43.080;25.550;2024-03-25T01:09:29;98219.77;;;10.09;64.54
37066;BME280;22981;43.080;25.550;2024-03-25T01:11:58;98215.20;;;10.07;64.66
37066;BME280;22981;43.080;25.550;2024-03-25T01:14:25;98210.60;;;10.02;64.79
37066;BME280;22981;43.080;25.550;2024-03-25T01:16:53;98211.83;;;9.95;65.05
37066;BME280;22981;43.080;25.550;2024-03-25T01:19:21;98204.98;;;9.85;65.27
37066;BME280;22981;43.080;25.550;2024-03-25T01:21:48;98210.30;;;9.82;65.45
37066;BME280;22981;43.080;25.550;2024-03-25T01:24:16;98204.69;;;9.81;65.53
37066;BME280;22981;43.080;25.550;2024-03-25T01:26:44;98206.78;;;9.79;65.73
37066;BME280;22981;43.080;25.550;2024-03-25T01:29:11;98211.31;;;9.78;65.90
37066;BME280;22981;43.080;25.550;2024-03-25T01:31:39;98216.11;;;9.76;66.11
37066;BME280;22981;43.080;25.550;2024-03-25T01:34:06;98215.80;;;9.75;66.33
37066;BME280;22981;43.080;25.550;2024-03-25T01:36:34;98215.05;;;9.77;66.49
37066;BME280;22981;43.080;25.550;2024-03-25T01:39:01;98216.61;;;9.76;66.65
37066;BME280;22981;43.080;25.550;2024-03-25T01:41:31;98219.39;;;9.64;66.83
37066;BME280;22981;43.080;25.550;2024-03-25T01:43:58;98215.54;;;9.58;67.07
37066;BME280;22981;43.080;25.550;2024-03-25T05:45:34;98342.69;;;7.49;69.64
37066;BME280;22981;43.080;25.550;2024-03-25T05:48:02;98346.52;;;7.53;69.71
37066;BME280;22981;43.080;25.550;2024-03-25T05:50:31;98348.73;;;7.56;69.91
37066;BME280;22981;43.080;25.550;2024-03-25T05:53:08;98351.69;;;7.57;70.06
37066;BME280;22981;43.080;25.550;2024-03-25T05:55:35;98354.87;;;7.57;70.14
37066;BME280;22981;43.080;25.550;2024-03-25T05:58:03;98345.63;;;7.59;70.22
37066;BME280;22981;43.080;25.550;2024-03-25T06:00:30;98356.94;;;7.64;70.31
37066;BME280;22981;43.080;25.550;2024-03-25T06:02:58;98358.31;;;7.66;70.39
37066;BME280;22981;43.080;25.550;2024-03-25T06:05:25;98354.11;;;7.68;70.43
37066;BME280;22981;43.080;25.550;2024-03-25T06:07:53;98357.50;;;7.66;70.52
37066;BME280;22981;43.080;25.550;2024-03-25T06:10:20;98364.40;;;7.64;70.63
37066;BME280;22981;43.080;25.550;2024-03-25T06:12:48;98367.51;;;7.61;70.87
37066;BME280;22981;43.080;25.550;2024-03-25T06:15:15;98360.41;;;7.64;70.93
37066;BME280;22981;43.080;25.550;2024-03-25T06:17:43;98358.31;;;7.66;70.92
37066;BME280;22981;43.080;25.550;2024-03-25T06:20:11;98355.65;;;7.66;70.92
37066;BME280;22981;43.080;25.550;2024-03-25T06:22:38;98355.31;;;7.63;70.82
37066;BME280;22981;43.080;25.550;2024-03-25T06:25:06;98364.97;;;7.66;70.79
37066;BME280;22981;43.080;25.550;2024-03-25T06:27:34;98363.19;;;7.69;70.85
37066;BME280;22981;43.080;25.550;2024-03-25T06:30:02;98363.72;;;7.69;70.77
37066;BME280;22981;43.080;25.550;2024-03-25T06:32:48;98365.65;;;7.71;70.72
37066;BME280;22981;43.080;25.550;2024-03-25T06:35:33;98375.46;;;7.70;70.72
37066;BME280;22981;43.080;25.550;2024-03-25T06:38:01;98377.64;;;7.71;70.73
37066;BME280;22981;43.080;25.550;2024-03-25T06:40:29;98386.20;;;7.73;70.72
37066;BME280;22981;43.080;25.550;2024-03-25T06:42:57;98382.97;;;7.71;70.74
37066;BME280;22981;43.080;25.550;2024-03-25T06:45:25;98389.98;;;7.65;70.74
37066;BME280;22981;43.080;25.550;2024-03-25T06:47:52;98384.02;;;7.61;70.77
37066;BME280;22981;43.080;25.550;2024-03-25T06:50:20;98390.10;;;7.59;70.90
37066;BME280;22981;43.080;25.550;2024-03-25T06:52:48;98390.55;;;7.56;70.98
37066;BME280;22981;43.080;25.550;2024-03-25T06:55:15;98391.46;;;7.49;70.95
37066;BME280;22981;43.080;25.550;2024-03-25T06:57:45;98400.55;;;7.51;70.89
37066;BME280;22981;43.080;25.550;2024-03-25T07:00:12;98394.62;;;7.49;70.92
37066;BME280;22981;43.080;25.550;2024-03-25T07:02:40;98396.19;;;7.47;71.02
37066;BME280;22981;43.080;25.550;2024-03-25T07:05:08;98406.11;;;7.49;70.93
37066;BME280;22981;43.080;25.550;2024-03-25T07:07:35;98409.58;;;7.50;70.86
37066;BME280;22981;43.080;25.550;2024-03-25T07:10:03;98404.41;;;7.46;70.92
37066;BME280;22981;43.080;25.550;2024-03-25T07:12:31;98411.80;;;7.44;70.99
37066;BME280;22981;43.080;25.550;2024-03-25T07:14:58;98423.41;;;7.40;71.05
37066;BME280;22981;43.080;25.550;2024-03-25T07:17:26;98424.22;;;7.41;71.16
37066;BME280;22981;43.080;25.550;2024-03-25T07:19:53;98431.24;;;7.44;71.16
37066;BME280;22981;43.080;25.550;2024-03-25T07:22:21;98438.42;;;7.44;71.23
37066;BME280;22981;43.080;25.550;2024-03-25T07:24:48;98442.50;;;7.46;71.23
37066;BME280;22981;43.080;25.550;2024-03-25T07:27:17;98452.34;;;7.46;71.12
37066;BME280;22981;43.080;25.550;2024-03-25T07:29:45;98459.20;;;7.44;71.12
37066;BME280;22981;43.080;25.550;2024-03-25T07:32:12;98456.92;;;7.39;71.24
37066;BME280;22981;43.080;25.550;2024-03-25T07:34:40;98470.53;;;7.40;71.38
37066;BME280;22981;43.080;25.550;2024-03-25T07:37:08;98460.02;;;7.45;71.42
37066;BME280;22981;43.080;25.550;2024-03-25T07:39:36;98467.52;;;7.45;71.36
37066;BME280;22981;43.080;25.550;2024-03-25T07:42:03;98461.34;;;7.45;71.45
37066;BME280;22981;43.080;25.550;2024-03-25T07:44:31;98467.14;;;7.42;71.50
37066;BME280;22981;43.080;25.550;2024-03-25T07:46:58;98464.11;;;7.38;71.58
37066;BME280;22981;43.080;25.550;2024-03-25T07:49:26;98464.16;;;7.41;71.61
37066;BME280;22981;43.080;25.550;2024-03-25T07:51:54;98468.23;;;7.43;71.75
37066;BME280;22981;43.080;25.550;2024-03-25T07:54:22;98467.56;;;7.48;71.85
37066;BME280;22981;43.080;25.550;2024-03-25T07:56:50;98469.34;;;7.45;71.98
37066;BME280;22981;43.080;25.550;2024-03-25T07:59:17;98469.56;;;7.43;72.17
37066;BME280;22981;43.080;25.550;2024-03-25T08:01:45;98468.69;;;7.49;72.29
37066;BME280;22981;43.080;25.550;2024-03-25T08:04:12;98467.78;;;7.56;72.36
37066;BME280;22981;43.080;25.550;2024-03-25T08:06:40;98467.55;;;7.57;72.42
37066;BME280;22981;43.080;25.550;2024-03-25T08:09:07;98473.84;;;7.63;72.50
37066;BME280;22981;43.080;25.550;2024-03-25T08:11:40;98470.51;;;7.67;72.45
37066;BME280;22981;43.080;25.550;2024-03-25T08:14:07;98480.86;;;7.75;72.41
37066;BME280;22981;43.080;25.550;2024-03-25T08:16:35;98475.05;;;7.78;72.36
37066;BME280;22981;43.080;25.550;2024-03-25T08:19:02;98472.91;;;7.78;72.31
37066;BME280;22981;43.080;25.550;2024-03-25T08:21:30;98487.13;;;7.81;72.31
37066;BME280;22981;43.080;25.550;2024-03-25T08:23:57;98482.37;;;7.83;72.38
37066;BME280;22981;43.080;25.550;2024-03-25T08:26:25;98483.63;;;7.90;72.38
37066;BME280;22981;43.080;25.550;2024-03-25T08:28:53;98485.22;;;8.00;72.32
37066;BME280;22981;43.080;25.550;2024-03-25T08:31:20;98482.52;;;8.09;72.24
37066;BME280;22981;43.080;25.550;2024-03-25T08:33:48;98484.16;;;8.10;72.02
37066;BME280;22981;43.080;25.550;2024-03-25T08:36:15;98487.92;;;8.12;71.86
37066;BME280;22981;43.080;25.550;2024-03-25T08:38:44;98485.66;;;8.06;71.75
37066;BME280;22981;43.080;25.550;2024-03-25T08:41:12;98497.73;;;7.99;71.77
37066;BME280;22981;43.080;25.550;2024-03-25T08:43:41;98486.78;;;7.98;71.84
37066;BME280;22981;43.080;25.550;2024-03-25T08:46:09;98494.55;;;8.00;71.80
37066;BME280;22981;43.080;25.550;2024-03-25T08:48:36;98489.81;;;8.02;71.67
37066;BME280;22981;43.080;25.550;2024-03-25T08:51:04;98500.47;;;8.02;71.63
37066;BME280;22981;43.080;25.550;2024-03-25T08:53:32;98493.73;;;7.99;71.59
37066;BME280;22981;43.080;25.550;2024-03-25T08:55:59;98495.67;;;8.01;71.57
37066;BME280;22981;43.080;25.550;2024-03-25T08:58:27;98496.31;;;8.06;71.63
37066;BME280;22981;43.080;25.550;2024-03-25T09:00:54;98494.30;;;8.11;71.65
37066;BME280;22981;43.080;25.550;2024-03-25T09:03:22;98496.33;;;8.18;71.64
37066;BME280;22981;43.080;25.550;2024-03-25T09:05:49;98497.05;;;8.25;71.53
37066;BME280;22981;43.080;25.550;2024-03-25T09:08:17;98499.89;;;8.21;71.38
37066;BME280;22981;43.080;25.550;2024-03-25T09:10:44;98504.77;;;8.24;71.25
37066;BME280;22981;43.080;25.550;2024-03-25T09:13:32;98496.94;;;8.20;71.15
37066;BME280;22981;43.080;25.550;2024-03-25T09:16:00;98497.22;;;8.21;71.11
37066;BME280;22981;43.080;25.550;2024-03-25T09:18:27;98498.55;;;8.21;71.08
37066;BME280;22981;43.080;25.550;2024-03-25T09:20:55;98504.77;;;8.24;71.05
37066;BME280;22981;43.080;25.550;2024-03-25T09:23:22;98510.62;;;8.23;70.94
37066;BME280;22981;43.080;25.550;2024-03-25T09:25:53;98504.84;;;8.26;70.87
37066;BME280;22981;43.080;25.550;2024-03-25T09:28:21;98516.49;;;8.35;70.79
37066;BME280;22981;43.080;25.550;2024-03-25T09:30:49;98516.97;;;8.41;70.64
37066;BME280;22981;43.080;25.550;2024-03-25T09:33:16;98511.98;;;8.44;70.49
37066;BME280;22981;43.080;25.550;2024-03-25T09:35:44;98514.94;;;8.45;70.44
37066;BME280;22981;43.080;25.550;2024-03-25T09:38:11;98507.75;;;8.46;70.43
37066;BME280;22981;43.080;25.550;2024-03-25T09:40:42;98505.32;;;8.44;70.49
37066;BME280;22981;43.080;25.550;2024-03-25T09:43:21;98516.67;;;8.40;70.53
37066;BME280;22981;43.080;25.550;2024-03-25T09:45:48;98520.20;;;8.34;70.63
37066;BME280;22981;43.080;25.550;2024-03-25T09:48:19;98521.94;;;8.28;70.76
37066;BME280;22981;43.080;25.550;2024-03-25T09:50:49;98516.17;;;8.22;70.93
37066;BME280;22981;43.080;25.550;2024-03-25T09:53:17;98522.11;;;8.24;71.10
37066;BME280;22981;43.080;25.550;2024-03-25T09:55:47;98529.42;;;8.28;71.20
37066;BME280;22981;43.080;25.550;2024-03-25T09:58:16;98527.11;;;8.32;71.19
37066;BME280;22981;43.080;25.550;2024-03-25T10:00:45;98543.55;;;8.38;71.21
37066;BME280;22981;43.080;25.550;2024-03-25T10:03:13;98559.64;;;8.41;71.19
37066;BME280;22981;43.080;25.550;2024-03-25T10:05:41;98568.45;;;8.41;71.19
37066;BME280;22981;43.080;25.550;2024-03-25T10:08:09;98569.94;;;8.28;71.12
37066;BME280;22981;43.080;25.550;2024-03-25T10:10:36;98574.33;;;8.13;71.27
37066;BME280;22981;43.080;25.550;2024-03-25T10:13:04;98572.59;;;7.98;71.29
37066;BME280;22981;43.080;25.550;2024-03-25T10:15:33;98574.16;;;7.78;71.26
37066;BME280;22981;43.080;25.550;2024-03-25T11:20:19;98607.09;;;7.74;73.84
37066;BME280;22981;43.080;25.550;2024-03-25T11:22:53;98603.84;;;7.82;73.92
37066;BME280;22981;43.080;25.550;2024-03-25T11:25:21;98613.45;;;7.92;74.14
37066;BME280;22981;43.080;25.550;2024-03-25T11:27:48;98611.53;;;7.99;74.35
37066;BME280;22981;43.080;25.550;2024-03-25T11:30:16;98616.56;;;8.07;74.62
37066;BME280;22981;43.080;25.550;2024-03-25T11:32:46;98608.91;;;8.20;74.75
37066;BME280;22981;43.080;25.550;2024-03-25T11:35:13;98606.87;;;8.34;74.75
37066;BME280;22981;43.080;25.550;2024-03-25T11:37:42;98611.86;;;8.48;74.77
37066;BME280;22981;43.080;25.550;2024-03-25T11:40:11;98601.80;;;8.62;74.80
37066;BME280;22981;43.080;25.550;2024-03-25T11:42:44;98603.09;;;8.71;74.69
37066;BME280;22981;43.080;25.550;2024-03-25T11:45:21;98603.17;;;8.74;74.65
37066;BME280;22981;43.080;25.550;2024-03-25T11:47:51;98599.73;;;8.76;74.65
37066;BME280;22981;43.080;25.550;2024-03-25T11:50:19;98605.16;;;8.78;74.65
37066;BME280;22981;43.080;25.550;2024-03-25T11:52:47;98598.52;;;8.81;74.75
37066;BME280;22981;43.080;25.550;2024-03-25T11:55:18;98595.93;;;8.84;74.68
37066;BME280;22981;43.080;25.550;2024-03-25T11:57:45;98601.03;;;8.85;74.69
37066;BME280;22981;43.080;25.550;2024-03-25T12:00:13;98598.44;;;8.88;74.76
37066;BME280;22981;43.080;25.550;2024-03-25T12:02:44;98597.09;;;8.88;74.79
37066;BME280;22981;43.080;25.550;2024-03-25T12:05:12;98592.54;;;9.09;74.55
37066;BME280;22981;43.080;25.550;2024-03-25T12:07:40;98589.27;;;9.54;74.25
37066;BME280;22981;43.080;25.550;2024-03-25T12:10:07;98582.55;;;10.03;73.45
37066;BME280;22981;43.080;25.550;2024-03-25T12:12:53;98580.47;;;10.20;72.81
37066;BME280;22981;43.080;25.550;2024-03-25T12:15:21;98576.28;;;10.38;72.08
37066;BME280;22981;43.080;25.550;2024-03-25T12:17:49;98574.50;;;10.44;71.86
37066;BME280;22981;43.080;25.550;2024-03-25T12:20:17;98577.62;;;10.38;71.73
37066;BME280;22981;43.080;25.550;2024-03-25T12:22:48;98569.45;;;10.31;71.74
37066;BME280;22981;43.080;25.550;2024-03-25T12:25:15;98563.39;;;10.23;71.81
37066;BME280;22981;43.080;25.550;2024-03-25T12:27:46;98567.28;;;10.16;71.78
37066;BME280;22981;43.080;25.550;2024-03-25T12:30:15;98574.34;;;10.08;71.93
37066;BME280;22981;43.080;25.550;2024-03-25T12:32:44;98573.47;;;10.04;72.12
37066;BME280;22981;43.080;25.550;2024-03-25T12:35:13;98573.47;;;10.04;72.01
37066;BME280;22981;43.080;25.550;2024-03-25T12:37:48;98578.38;;;9.96;71.90
37066;BME280;22981;43.080;25.550;2024-03-25T12:40:25;98585.16;;;9.87;71.95
37066;BME280;22981;43.080;25.550;2024-03-25T12:42:42;98582.96;;;9.72;71.95
37066;BME280;22981;43.080;25.550;2024-03-25T12:45:09;98598.34;;;9.53;72.22
37066;BME280;22981;43.080;25.550;2024-03-25T12:47:38;98599.73;;;9.32;72.82
37066;BME280;22981;43.080;25.550;2024-03-25T13:00:18;98627.05;;;8.39;73.41
37066;BME280;22981;43.080;25.550;2024-03-25T13:02:45;98642.61;;;8.42;73.40
37066;BME280;22981;43.080;25.550;2024-03-25T13:05:13;98643.70;;;8.43;73.60
37066;BME280;22981;43.080;25.550;2024-03-25T13:07:40;98639.20;;;8.44;73.70
37066;BME280;22981;43.080;25.550;2024-03-25T13:10:20;98639.48;;;8.36;73.74
37066;BME280;22981;43.080;25.550;2024-03-25T13:12:48;98639.69;;;8.34;73.84
37066;BME280;22981;43.080;25.550;2024-03-25T13:15:16;98623.36;;;8.40;73.69
37066;BME280;22981;43.080;25.550;2024-03-25T13:17:43;98622.03;;;8.40;73.39
37066;BME280;22981;43.080;25.550;2024-03-25T13:20:11;98634.60;;;8.42;73.22
37066;BME280;22981;43.080;25.550;2024-03-25T13:22:40;98631.86;;;8.48;73.11
37066;BME280;22981;43.080;25.550;2024-03-25T13:25:09;98620.11;;;8.59;72.99
37066;BME280;22981;43.080;25.550;2024-03-25T13:27:37;98614.81;;;8.70;72.95
37066;BME280;22981;43.080;25.550;2024-03-25T13:30:06;98611.34;;;8.82;72.69
37066;BME280;22981;43.080;25.550;2024-03-25T13:32:33;98618.09;;;8.84;72.25
37066;BME280;22981;43.080;25.550;2024-03-25T13:35:01;98612.56;;;9.09;72.01
37066;BME280;22981;43.080;25.550;2024-03-25T13:37:29;98607.58;;;9.48;71.38
37066;BME280;22981;43.080;25.550;2024-03-25T13:39:56;98604.30;;;9.81;70.06
37066;BME280;22981;43.080;25.550;2024-03-25T13:42:24;98600.95;;;9.88;69.47
37066;BME280;22981;43.080;25.550;2024-03-25T13:44:52;98599.45;;;9.81;68.78
37066;BME280;22981;43.080;25.550;2024-03-25T13:47:19;98601.27;;;9.89;67.93
37066;BME280;22981;43.080;25.550;2024-03-25T13:49:47;98599.16;;;10.06;67.60
37066;BME280;22981;43.080;25.550;2024-03-25T13:52:15;98595.36;;;10.16;67.34
37066;BME280;22981;43.080;25.550;2024-03-25T13:54:42;98600.22;;;10.19;67.39
37066;BME280;22981;43.080;25.550;2024-03-25T13:57:10;98601.70;;;10.12;67.29
37066;BME280;22981;43.080;25.550;2024-03-25T13:59:37;98600.03;;;10.09;67.33
37066;BME280;22981;43.080;25.550;2024-03-25T14:02:05;98605.28;;;10.03;67.35
37066;BME280;22981;43.080;25.550;2024-03-25T14:04:32;98604.94;;;10.00;67.45
37066;BME280;22981;43.080;25.550;2024-03-25T14:07:00;98597.63;;;9.95;67.60
37066;BME280;22981;43.080;25.550;2024-03-25T14:09:29;98604.25;;;9.93;67.66
37066;BME280;22981;43.080;25.550;2024-03-25T14:11:56;98608.16;;;9.88;67.67
37066;BME280;22981;43.080;25.550;2024-03-25T14:14:24;98603.06;;;9.86;67.83
37066;BME280;22981;43.080;25.550;2024-03-25T14:16:52;98593.96;;;9.99;67.75
37066;BME280;22981;43.080;25.550;2024-03-25T14:19:20;98593.06;;;10.22;67.54
37066;BME280;22981;43.080;25.550;2024-03-25T14:21:49;98595.06;;;10.41;67.24
37066;BME280;22981;43.080;25.550;2024-03-25T14:24:17;98602.27;;;10.55;67.05
37066;BME280;22981;43.080;25.550;2024-03-25T14:26:45;98597.25;;;10.58;67.00
37066;BME280;22981;43.080;25.550;2024-03-25T14:29:13;98590.25;;;10.57;67.08
37066;BME280;22981;43.080;25.550;2024-03-25T14:31:40;98597.47;;;10.57;67.20
37066;BME280;22981;43.080;25.550;2024-03-25T14:34:08;98593.60;;;10.64;67.44
37066;BME280;22981;43.080;25.550;2024-03-25T14:36:35;98593.66;;;10.67;67.54
37066;BME280;22981;43.080;25.550;2024-03-25T14:39:03;98592.93;;;10.71;67.07
37066;BME280;22981;43.080;25.550;2024-03-25T14:41:38;98586.67;;;10.83;66.11
37066;BME280;22981;43.080;25.550;2024-03-25T14:44:06;98585.72;;;10.89;65.57
37066;BME280;22981;43.080;25.550;2024-03-25T14:46:33;98594.23;;;10.86;65.24
37066;BME280;22981;43.080;25.550;2024-03-25T14:49:01;98608.07;;;10.80;64.96
37066;BME280;22981;43.080;25.550;2024-03-25T14:51:29;98613.56;;;10.73;65.09
37066;BME280;22981;43.080;25.550;2024-03-25T14:53:56;98619.37;;;10.68;65.09
37066;BME280;22981;43.080;25.550;2024-03-25T14:56:24;98620.90;;;10.64;65.33
37066;BME280;22981;43.080;25.550;2024-03-25T14:58:51;98622.48;;;10.62;65.35
37066;BME280;22981;43.080;25.550;2024-03-25T15:01:19;98616.27;;;10.59;65.20
37066;BME280;22981;43.080;25.550;2024-03-25T15:03:46;98617.33;;;10.58;65.17
37066;BME280;22981;43.080;25.550;2024-03-25T15:06:14;98616.18;;;10.54;65.24
37066;BME280;22981;43.080;25.550;2024-03-25T15:08:42;98617.18;;;10.50;65.22
37066;BME280;22981;43.080;25.550;2024-03-25T15:11:11;98609.81;;;10.43;65.28
37066;BME280;22981;43.080;25.550;2024-03-25T15:13:38;98612.96;;;10.40;65.45
37066;BME280;22981;43.080;25.550;2024-03-25T15:16:08;98623.10;;;10.38;65.77
37066;BME280;22981;43.080;25.550;2024-03-25T15:18:35;98610.47;;;10.36;65.98
37066;BME280;22981;43.080;25.550;2024-03-25T15:21:06;98613.46;;;10.37;65.89
37066;BME280;22981;43.080;25.550;2024-03-25T15:23:33;98614.55;;;10.39;65.93
37066;BME280;22981;43.080;25.550;2024-03-25T15:26:01;98617.03;;;10.43;65.89
37066;BME280;22981;43.080;25.550;2024-03-25T15:28:29;98612.48;;;10.43;65.84
37066;BME280;22981;43.080;25.550;2024-03-25T15:30:57;98625.12;;;10.45;65.83
37066;BME280;22981;43.080;25.550;2024-03-25T15:33:24;98624.59;;;10.46;65.68
37066;BME280;22981;43.080;25.550;2024-03-25T15:35:52;98630.22;;;10.47;65.43
37066;BME280;22981;43.080;25.550;2024-03-25T15:38:19;98633.95;;;10.46;65.16
37066;BME280;22981;43.080;25.550;2024-03-25T15:40:47;98638.72;;;10.44;65.10
37066;BME280;22981;43.080;25.550;2024-03-25T15:43:16;98631.50;;;10.44;65.07
37066;BME280;22981;43.080;25.550;2024-03-25T15:45:59;98635.95;;;10.39;65.20
37066;BME280;22981;43.080;25.550;2024-03-25T15:48:23;98631.69;;;10.26;65.48
37066;BME280;22981;43.080;25.550;2024-03-25T15:50:50;98637.97;;;10.20;65.68
37066;BME280;22981;43.080;25.550;2024-03-25T15:53:18;98635.77;;;10.17;65.77
37066;BME280;22981;43.080;25.550;2024-03-25T15:55:46;98638.19;;;10.18;65.92
37066;BME280;22981;43.080;25.550;2024-03-25T15:58:13;98646.22;;;10.18;66.04
37066;BME280;22981;43.080;25.550;2024-03-25T16:00:41;98645.41;;;10.18;66.20
37066;BME280;22981;43.080;25.550;2024-03-25T16:03:09;98649.66;;;10.16;66.35
37066;BME280;22981;43.080;25.550;2024-03-25T16:05:36;98655.66;;;10.09;66.58
37066;BME280;22981;43.080;25.550;2024-03-25T16:08:06;98646.95;;;10.02;66.83
37066;BME280;22981;43.080;25.550;2024-03-25T16:10:34;98654.23;;;9.92;66.51
37066;BME280;22981;43.080;25.550;2024-03-25T16:13:02;98654.95;;;9.88;66.12
37066;BME280;22981;43.080;25.550;2024-03-25T16:15:31;98660.25;;;9.85;65.62
37066;BME280;22981;43.080;25.550;2024-03-25T16:17:59;98665.60;;;9.85;64.82
37066;BME280;22981;43.080;25.550;2024-03-25T16:20:30;98662.33;;;9.83;63.74
37066;BME280;22981;43.080;25.550;2024-03-25T16:22:58;98662.05;;;9.82;62.51
37066;BME280;22981;43.080;25.550;2024-03-25T16:25:27;98659.31;;;9.79;61.69
37066;BME280;22981;43.080;25.550;2024-03-25T16:27:54;98666.69;;;9.75;60.83
37066;BME280;22981;43.080;25.550;2024-03-25T16:30:22;98678.90;;;9.71;60.14
37066;BME280;22981;43.080;25.550;2024-03-25T16:32:50;98686.80;;;9.66;59.61
37066;BME280;22981;43.080;25.550;2024-03-25T16:35:18;98689.65;;;9.62;59.21
37066;BME280;22981;43.080;25.550;2024-03-25T16:37:46;98693.27;;;9.56;58.94
37066;BME280;22981;43.080;25.550;2024-03-25T16:40:14;98692.63;;;9.51;58.87
37066;BME280;22981;43.080;25.550;2024-03-25T16:42:41;98695.99;;;9.46;58.69
37066;BME280;22981;43.080;25.550;2024-03-25T16:45:09;98702.84;;;9.42;58.49
37066;BME280;22981;43.080;25.550;2024-03-25T16:47:37;98707.02;;;9.38;58.43
37066;BME280;22981;43.080;25.550;2024-03-25T16:50:05;98703.17;;;9.34;58.38
37066;BME280;22981;43.080;25.550;2024-03-25T16:52:34;98706.22;;;9.28;58.22
37066;BME280;22981;43.080;25.550;2024-03-25T16:55:02;98716.86;;;9.26;58.05
37066;BME280;22981;43.080;25.550;2024-03-25T16:57:30;98721.84;;;9.22;57.89
37066;BME280;22981;43.080;25.550;2024-03-25T16:59:57;98721.19;;;9.18;57.67
37066;BME280;22981;43.080;25.550;2024-03-25T17:02:25;98725.93;;;9.16;57.59
37066;BME280;22981;43.080;25.550;2024-03-25T17:04:52;98726.09;;;9.12;57.57
37066;BME280;22981;43.080;25.550;2024-03-25T17:07:21;98726.05;;;9.09;57.59
37066;BME280;22981;43.080;25.550;2024-03-25T17:09:48;98739.55;;;9.05;57.60
37066;BME280;22981;43.080;25.550;2024-03-25T17:12:16;98740.81;;;9.02;57.53
37066;BME280;22981;43.080;25.550;2024-03-25T17:14:43;98735.63;;;8.98;57.58
37066;BME280;22981;43.080;25.550;2024-03-25T17:17:11;98738.77;;;8.95;57.50
37066;BME280;22981;43.080;25.550;2024-03-25T17:19:38;98748.04;;;8.93;57.32
37066;BME280;22981;43.080;25.550;2024-03-25T17:22:06;98747.67;;;8.89;57.11
37066;BME280;22981;43.080;25.550;2024-03-25T17:24:33;98752.44;;;8.87;56.92
37066;BME280;22981;43.080;25.550;2024-03-25T17:27:02;98752.36;;;8.85;56.71
37066;BME280;22981;43.080;25.550;2024-03-25T17:29:30;98753.92;;;8.83;56.59
37066;BME280;22981;43.080;25.550;2024-03-25T17:31:58;98764.80;;;8.82;56.53
37066;BME280;22981;43.080;25.550;2024-03-25T17:34:25;98767.95;;;8.78;56.52
37066;BME280;22981;43.080;25.550;2024-03-25T17:36:53;98773.73;;;8.75;56.51
37066;BME280;22981;43.080;25.550;2024-03-25T17:39:21;98776.02;;;8.72;56.53
37066;BME280;22981;43.080;25.550;2024-03-25T17:41:48;98783.98;;;8.69;56.59
37066;BME280;22981;43.080;25.550;2024-03-25T17:44:16;98791.90;;;8.67;56.65
37066;BME280;22981;43.080;25.550;2024-03-25T17:46:43;98797.38;;;8.63;56.63
37066;BME280;22981;43.080;25.550;2024-03-25T17:49:11;98802.05;;;8.58;56.62
37066;BME280;22981;43.080;25.550;2024-03-25T17:51:38;98812.64;;;8.56;56.66
37066;BME280;22981;43.080;25.550;2024-03-25T17:54:06;98813.92;;;8.53;56.66
37066;BME280;22981;43.080;25.550;2024-03-25T17:56:34;98815.92;;;8.48;56.62
37066;BME280;22981;43.080;25.550;2024-03-25T17:59:03;98823.11;;;8.48;56.56
37066;BME280;22981;43.080;25.550;2024-03-25T18:01:31;98829.98;;;8.46;56.57
37066;BME280;22981;43.080;25.550;2024-03-25T18:03:58;98832.59;;;8.44;56.59
37066;BME280;22981;43.080;25.550;2024-03-25T18:06:26;98834.94;;;8.43;56.67
37066;BME280;22981;43.080;25.550;2024-03-25T18:08:53;98835.40;;;8.40;56.68
37066;BME280;22981;43.080;25.550;2024-03-25T18:11:21;98838.27;;;8.38;56.68
37066;BME280;22981;43.080;25.550;2024-03-25T18:13:48;98834.99;;;8.36;56.73